Time;durP1;ratioP1;P1;durP2;ratioP2;P2;SDS_P1;SDS_P2;PMS_P1;PMS_P2;Temp;Humidity;BMP_temperature;BMP_pressure;BME280_temperature;BME280_humidity;BME280_pressure;Samples;Min_cycle;Max_cycle;Signal;HPM_P1;HPM_P2
2021/05/16 00:00:47;;;;;;;5.77;0.93;;;;;;;7.17;81.21;95265.88;5052392;28;20112;-77
2021/05/16 00:03:13;;;;;;;3.43;0.80;;;;;;;7.00;81.53;95272.88;5051980;28;20490;-77
2021/05/16 00:05:39;;;;;;;2.27;0.63;;;;;;;6.94;81.91;95267.47;5052152;28;20025;-77
2021/05/16 00:08:06;;;;;;;2.57;0.60;;;;;;;6.97;81.63;95269.75;5051994;28;20025;-77
2021/05/16 00:10:32;;;;;;;4.87;0.90;;;;;;;6.92;81.33;95269.44;5051551;28;20116;-77
2021/05/16 00:12:58;;;;;;;2.90;0.80;;;;;;;6.89;81.44;95267.13;5052122;28;20252;-77
2021/05/16 00:15:26;;;;;;;2.80;0.80;;;;;;;6.83;82.28;95273.81;5050883;28;20567;-77
2021/05/16 00:17:52;;;;;;;4.47;1.00;;;;;;;6.76;82.50;95270.22;5048043;28;20125;-78
2021/05/16 00:20:22;;;;;;;3.57;0.73;;;;;;;6.83;81.86;95260.75;5051632;28;20024;-77
2021/05/16 00:22:48;;;;;;;6.17;0.87;;;;;;;6.77;81.89;95264.84;5051453;28;20021;-77
2021/05/16 00:25:16;;;;;;;7.80;0.93;;;;;;;6.82;82.04;95267.78;5048393;28;20021;-77
2021/05/16 00:27:43;;;;;;;4.53;0.90;;;;;;;6.82;81.98;95265.16;5042395;28;20066;-77
2021/05/16 00:30:11;;;;;;;4.53;0.73;;;;;;;6.86;81.93;95265.66;5051555;28;20489;-76
2021/05/16 00:32:37;;;;;;;5.47;0.90;;;;;;;6.78;82.95;95261.25;5035308;28;20033;-77
2021/05/16 00:35:06;;;;;;;5.40;0.93;;;;;;;6.77;82.78;95264.00;5051043;28;20021;-77
2021/05/16 00:37:31;;;;;;;3.50;0.70;;;;;;;6.76;82.70;95262.38;5051255;28;20032;-77
2021/05/16 00:39:57;;;;;;;3.43;0.80;;;;;;;6.77;82.88;95249.16;5051588;28;20484;-77
2021/05/16 00:42:24;;;;;;;4.27;1.33;;;;;;;6.76;83.01;95250.13;5051324;28;20052;-77
2021/05/16 00:45:20;;;;;;;2.70;0.83;;;;;;;6.69;83.27;95251.72;5050618;28;20508;-77
2021/05/16 00:47:47;;;;;;;6.23;0.83;;;;;;;6.67;83.09;95258.91;5019609;28;20049;-77
2021/05/16 00:50:14;;;;;;;2.10;1.00;;;;;;;6.72;83.19;95259.25;5050939;28;20493;-77
2021/05/16 00:52:41;;;;;;;5.20;1.00;;;;;;;6.71;83.44;95257.63;5050598;28;20032;-76
2021/05/16 00:55:09;;;;;;;3.20;0.63;;;;;;;6.68;82.58;95255.34;5052071;28;20097;-77
2021/05/16 00:57:36;;;;;;;3.20;0.63;;;;;;;6.65;83.54;95255.66;5050883;28;20604;-77
2021/05/16 01:00:05;;;;;;;4.43;0.73;;;;;;;6.71;82.80;95247.19;5062716;28;20020;-77
2021/05/16 01:02:31;;;;;;;6.37;1.30;;;;;;;6.66;83.29;95246.81;5030737;28;20082;-77
2021/05/16 01:04:57;;;;;;;5.77;1.03;;;;;;;6.62;82.94;95255.97;5043960;28;20497;-77
2021/05/16 01:07:25;;;;;;;4.90;1.27;;;;;;;6.64;82.94;95254.03;5051028;28;20464;-77
2021/05/16 01:09:51;;;;;;;4.17;1.00;;;;;;;6.55;83.08;95249.75;5050579;28;20087;-77
2021/05/16 01:12:17;;;;;;;9.13;0.90;;;;;;;6.44;83.75;95250.00;5050080;28;20629;-77
2021/05/16 01:14:45;;;;;;;4.53;1.37;;;;;;;6.32;84.33;95250.31;5050713;28;20025;-77
2021/05/16 01:17:12;;;;;;;2.93;0.80;;;;;;;6.29;84.18;95250.63;5050452;28;20061;-78
2021/05/16 01:19:39;;;;;;;4.30;1.10;;;;;;;6.27;84.76;95252.59;5050330;28;20188;-77
2021/05/16 01:22:07;;;;;;;4.30;1.30;;;;;;;6.26;84.36;95255.34;5050188;28;20033;-77
2021/05/16 01:24:37;;;;;;;5.23;0.90;;;;;;;6.19;85.32;95260.34;5050394;28;20044;-77
2021/05/16 01:27:10;;;;;;;7.93;1.13;;;;;;;6.18;84.92;95252.69;5049924;28;20036;-77
2021/05/16 01:29:37;;;;;;;6.18;0.98;;;;;;;6.16;85.12;95257.25;5046653;28;20075;-76
2021/05/16 01:32:03;;;;;;;2.97;0.70;;;;;;;6.17;84.85;95253.66;5030390;28;20029;-77
2021/05/16 01:34:29;;;;;;;6.47;1.03;;;;;;;6.16;85.12;95259.84;5030415;28;20038;-77
2021/05/16 01:36:55;;;;;;;3.47;0.80;;;;;;;6.10;84.95;95261.28;5034959;28;20100;-77
2021/05/16 01:39:21;;;;;;;4.43;0.90;;;;;;;6.17;84.77;95259.72;5050268;28;20040;-77
2021/05/16 01:41:47;;;;;;;6.43;0.90;;;;;;;6.13;84.97;95255.75;5033539;28;20029;-77
2021/05/16 01:44:15;;;;;;;4.27;0.90;;;;;;;6.10;84.78;95256.91;5050090;28;20112;-77
2021/05/16 01:46:44;;;;;;;3.17;0.90;;;;;;;6.16;84.96;95260.66;5046091;28;20417;-77
2021/05/16 01:49:10;;;;;;;2.67;0.77;;;;;;;6.18;84.78;95258.72;5044221;28;20035;-77
2021/05/16 01:51:36;;;;;;;5.30;1.13;;;;;;;6.20;84.71;95258.56;5049474;28;20021;-77
2021/05/16 01:54:02;;;;;;;6.07;1.27;;;;;;;6.16;84.44;95258.06;5049098;28;20490;-78
2021/05/16 01:56:29;;;;;;;3.63;1.10;;;;;;;6.23;84.68;95250.41;5046658;28;20083;-77
2021/05/16 01:58:57;;;;;;;4.10;0.90;;;;;;;6.19;84.92;95259.53;5035032;28;20060;-77
2021/05/16 02:01:24;;;;;;;5.07;1.13;;;;;;;6.22;84.57;95262.66;5049398;28;20033;-77
2021/05/16 02:03:54;;;;;;;4.67;1.17;;;;;;;6.25;84.10;95264.97;5044454;28;20422;-77
2021/05/16 02:06:21;;;;;;;5.90;1.07;;;;;;;6.30;84.41;95262.69;5029403;28;20506;-77
2021/05/16 02:08:50;;;;;;;3.33;0.90;;;;;;;6.35;84.99;95257.81;5041701;28;20017;-76
2021/05/16 02:11:28;;;;;;;4.70;1.07;;;;;;;6.37;84.96;95258.50;5044276;28;20485;-77
2021/05/16 02:14:07;;;;;;;5.53;0.93;;;;;;;6.43;84.07;95254.41;5045289;28;20033;-77
2021/05/16 02:16:34;;;;;;;4.10;0.90;;;;;;;6.50;84.65;95259.84;5049520;28;20670;-77
2021/05/16 02:19:06;;;;;;;3.42;0.82;;;;;;;6.56;84.25;95259.19;5062859;28;20073;-77
2021/05/16 02:21:36;;;;;;;3.90;0.77;;;;;;;6.59;84.79;95254.47;5053449;28;20024;-78
2021/05/16 02:24:03;;;;;;;4.50;0.80;;;;;;;6.61;84.61;95259.56;5063583;28;20037;-77
2021/05/16 02:26:58;;;;;;;3.53;0.90;;;;;;;6.65;84.48;95260.06;5056985;28;20041;-77
2021/05/16 02:29:24;;;;;;;3.70;0.70;;;;;;;6.71;84.39;95257.63;5063608;28;20033;-76
2021/05/16 02:31:50;;;;;;;5.47;1.30;;;;;;;6.73;84.08;95257.47;5058177;28;20036;-77
2021/05/16 02:34:16;;;;;;;2.93;0.93;;;;;;;6.70;83.74;95253.34;5045221;28;20403;-80
2021/05/16 02:36:42;;;;;;;4.27;1.00;;;;;;;6.74;84.32;95249.47;5053125;28;20028;-77
2021/05/16 02:39:08;;;;;;;3.27;0.90;;;;;;;6.75;84.20;95250.28;5057489;28;20021;-77
2021/05/16 02:41:38;;;;;;;3.47;1.20;;;;;;;6.75;84.97;95253.72;5053972;28;20029;-77
2021/05/16 02:44:04;;;;;;;3.53;1.67;;;;;;;6.76;85.67;95255.34;5062264;28;20020;-77
2021/05/16 02:46:30;;;;;;;6.10;1.00;;;;;;;6.75;85.35;95264.16;5064950;28;20421;-77
2021/05/16 02:48:57;;;;;;;6.43;1.20;;;;;;;6.77;84.70;95253.53;5038708;28;20024;-77
2021/05/16 02:51:22;;;;;;;1.63;0.60;;;;;;;6.76;85.17;95244.06;5058753;28;20024;-76
2021/05/16 02:53:51;;;;;;;4.40;1.27;;;;;;;6.74;85.34;95248.63;5042340;28;20033;-77
2021/05/16 02:56:18;;;;;;;3.37;1.27;;;;;;;6.78;85.93;95245.56;5052237;28;20083;-77
2021/05/16 02:58:44;;;;;;;3.83;1.00;;;;;;;6.80;84.85;95243.59;5039871;28;20124;-76
2021/05/16 03:01:11;;;;;;;3.17;0.90;;;;;;;6.84;84.18;95244.94;5052412;28;20025;-77
2021/05/16 03:03:41;;;;;;;2.93;0.87;;;;;;;6.87;84.05;95249.00;5055675;28;20029;-77
2021/05/16 03:06:09;;;;;;;3.53;1.07;;;;;;;6.88;84.41;95244.59;5033144;28;20109;-77
2021/05/16 03:08:36;;;;;;;2.37;1.03;;;;;;;6.91;84.16;95249.47;5057457;28;20382;-77
2021/05/16 03:11:02;;;;;;;4.40;1.20;;;;;;;6.93;83.79;95245.75;5031824;28;20645;-77
2021/05/16 03:13:28;;;;;;;4.60;1.03;;;;;;;7.00;83.57;95245.91;5051244;28;20033;-77
2021/05/16 03:15:55;;;;;;;4.83;1.03;;;;;;;6.99;83.89;95247.72;5056497;28;20024;-77
2021/05/16 03:18:24;;;;;;;6.03;1.63;;;;;;;7.00;83.60;95245.91;5059552;28;20029;-77
2021/05/16 03:20:50;;;;;;;6.33;1.10;;;;;;;7.01;84.29;95242.34;5060219;28;20020;-77
2021/05/16 03:23:17;;;;;;;2.50;0.70;;;;;;;7.03;84.40;95251.63;5060010;28;20029;-77
2021/05/16 03:25:45;;;;;;;3.40;1.00;;;;;;;7.01;85.08;95253.59;5046674;28;20025;-77
2021/05/16 03:28:11;;;;;;;3.03;0.70;;;;;;;7.07;85.01;95252.13;5049313;28;20029;-77
2021/05/16 03:30:36;;;;;;;2.20;1.10;;;;;;;7.03;84.99;95249.03;5060360;28;20094;-77
2021/05/16 03:33:02;;;;;;;6.77;0.97;;;;;;;7.04;86.25;95255.06;5055411;28;20044;-77
2021/05/16 03:35:28;;;;;;;4.40;1.03;;;;;;;7.04;86.54;95244.59;5052281;28;20027;-77
2021/05/16 03:37:54;;;;;;;3.60;0.90;;;;;;;7.03;86.01;95248.22;5060396;28;20036;-77
2021/05/16 03:40:20;;;;;;;4.03;1.00;;;;;;;7.02;86.50;95251.81;5052796;28;20446;-76
2021/05/16 03:42:45;;;;;;;2.27;0.83;;;;;;;7.05;86.24;95261.94;5049175;28;20398;-77
2021/05/16 03:45:12;;;;;;;4.20;0.80;;;;;;;7.04;85.92;95253.28;5058162;28;20100;-78
2021/05/16 03:47:39;;;;;;;5.43;1.00;;;;;;;7.04;86.35;95253.28;5055795;28;20041;-76
2021/05/16 03:50:07;;;;;;;5.10;1.60;;;;;;;7.09;86.08;95258.03;5051105;28;20040;-77
2021/05/16 03:52:33;;;;;;;4.97;1.57;;;;;;;7.06;86.26;95250.50;5052502;28;20039;-77
2021/05/16 03:54:58;;;;;;;4.33;1.47;;;;;;;7.07;86.79;95255.56;5048294;28;20032;-77
2021/05/16 03:57:24;;;;;;;5.10;1.20;;;;;;;7.10;86.69;95249.19;5053066;28;20032;-77
2021/05/16 03:59:51;;;;;;;3.17;1.00;;;;;;;7.16;86.15;95252.97;5072692;28;20032;-77
2021/05/16 04:02:17;;;;;;;3.70;0.90;;;;;;;7.17;86.46;95249.38;5058324;28;20045;-77
2021/05/16 04:04:43;;;;;;;1.63;0.80;;;;;;;7.21;86.71;95254.13;5060551;28;20057;-77
2021/05/16 04:07:09;;;;;;;3.83;1.87;;;;;;;7.20;87.64;95260.31;5076045;28;20020;-77
2021/05/16 04:09:34;;;;;;;6.13;0.90;;;;;;;7.24;87.27;95256.41;5060103;28;20371;-77
2021/05/16 04:12:00;;;;;;;3.83;1.37;;;;;;;7.31;87.39;95251.34;5059445;28;20025;-77
2021/05/16 04:14:27;;;;;;;3.33;1.10;;;;;;;7.35;87.28;95257.06;5057800;28;20075;-77
2021/05/16 04:16:54;;;;;;;4.47;0.97;;;;;;;7.36;87.61;95258.69;5074745;28;20037;-78
2021/05/16 04:19:20;;;;;;;3.57;1.13;;;;;;;7.37;87.43;95262.94;5075341;28;20028;-78
2021/05/16 04:21:46;;;;;;;1.97;0.87;;;;;;;7.37;87.01;95262.94;5060164;28;20029;-77
2021/05/16 04:24:12;;;;;;;5.10;0.90;;;;;;;7.39;86.90;95263.59;5060474;28;20044;-78
2021/05/16 04:26:38;;;;;;;3.57;0.97;;;;;;;7.44;86.27;95261.31;5060609;28;20060;-78
2021/05/16 04:29:04;;;;;;;6.50;1.10;;;;;;;7.44;87.73;95263.91;5056775;28;20029;-77
2021/05/16 04:31:30;;;;;;;4.90;1.07;;;;;;;7.43;87.25;95257.88;5060334;28;20041;-78
2021/05/16 04:33:55;;;;;;;5.93;1.30;;;;;;;7.41;88.12;95254.63;5057649;28;20021;-77
2021/05/16 04:36:21;;;;;;;4.53;1.10;;;;;;;7.48;88.57;95262.63;5043392;28;20037;-78
2021/05/16 04:38:48;;;;;;;3.00;1.00;;;;;;;7.41;88.94;95267.69;5059090;28;20048;-78
2021/05/16 04:41:15;;;;;;;3.47;1.50;;;;;;;7.42;89.43;95268.50;5056668;28;20438;-78
2021/05/16 04:43:41;;;;;;;5.63;1.30;;;;;;;7.43;90.88;95270.94;5057882;28;20562;-77
2021/05/16 04:46:07;;;;;;;3.53;1.20;;;;;;;7.40;90.99;95268.66;5057045;28;20046;-77
2021/05/16 04:48:33;;;;;;;4.97;1.20;;;;;;;7.36;90.84;95269.97;5061028;28;20096;-78
2021/05/16 04:50:58;;;;;;;4.40;1.07;;;;;;;7.38;91.16;95270.63;5054427;28;20053;-78
2021/05/16 04:53:28;;;;;;;5.93;1.33;;;;;;;7.40;91.68;95270.47;5055690;28;20032;-78
2021/05/16 04:55:54;;;;;;;4.63;1.20;;;;;;;7.41;91.51;95270.31;5056378;28;20044;-78
2021/05/16 04:58:19;;;;;;;6.20;1.27;;;;;;;7.53;91.77;95270.78;5054564;28;20020;-77
2021/05/16 05:00:45;;;;;;;3.90;1.60;;;;;;;7.52;91.53;95271.78;5044435;28;20486;-78
2021/05/16 05:03:11;;;;;;;3.37;0.83;;;;;;;7.51;91.50;95276.19;5055921;28;20135;-78
2021/05/16 05:05:37;;;;;;;5.27;1.10;;;;;;;7.50;91.26;95273.72;5056548;28;20405;-77
2021/05/16 05:08:03;;;;;;;5.17;1.50;;;;;;;7.55;91.67;95274.88;5071444;28;20025;-77
2021/05/16 05:10:29;;;;;;;4.33;1.00;;;;;;;7.68;91.83;95271.78;5051842;28;20136;-78
2021/05/16 05:12:54;;;;;;;5.13;1.20;;;;;;;7.62;91.29;95269.81;5037978;28;20486;-78
2021/05/16 05:15:20;;;;;;;4.83;1.37;;;;;;;7.63;91.31;95279.28;5055789;28;20674;-78
2021/05/16 05:17:46;;;;;;;6.73;1.47;;;;;;;7.79;91.47;95275.84;5048605;28;20025;-77
2021/05/16 05:20:12;;;;;;;5.63;1.70;;;;;;;7.88;91.12;95284.50;5037665;28;20036;-77
2021/05/16 05:22:38;;;;;;;3.70;1.53;;;;;;;8.02;91.02;95287.28;5039057;28;20075;-78
2021/05/16 05:25:04;;;;;;;4.57;1.17;;;;;;;8.04;90.48;95290.53;5063493;28;20044;-77
2021/05/16 05:27:30;;;;;;;5.70;1.40;;;;;;;8.00;91.19;95285.78;5059159;28;20028;-77
2021/05/16 05:29:57;;;;;;;7.23;1.43;;;;;;;8.05;91.68;95286.13;5057787;28;20037;-78
2021/05/16 05:32:22;;;;;;;5.03;1.50;;;;;;;8.01;91.41;95284.81;5059587;28;20029;-78
2021/05/16 05:34:48;;;;;;;6.93;2.00;;;;;;;7.96;91.44;95274.84;5055007;28;20128;-77
2021/05/16 05:37:14;;;;;;;6.83;2.03;;;;;;;8.09;91.51;95270.91;5041897;28;20092;-78
2021/05/16 05:39:39;;;;;;;4.93;1.17;;;;;;;8.20;91.50;95278.38;5059131;28;20039;-77
2021/05/16 05:42:05;;;;;;;5.87;1.23;;;;;;;8.20;91.39;95275.78;5058114;28;20033;-77
2021/05/16 05:44:32;;;;;;;6.00;1.40;;;;;;;8.25;90.32;95271.66;5060623;28;20033;-77
2021/05/16 05:46:58;;;;;;;5.80;1.20;;;;;;;8.35;90.89;95270.63;5056127;28;20036;-77
2021/05/16 05:49:24;;;;;;;2.13;1.03;;;;;;;8.32;89.77;95266.56;5059190;28;20611;-78
2021/05/16 05:51:50;;;;;;;6.27;1.63;;;;;;;8.29;90.01;95266.09;5058801;28;20021;-77
2021/05/16 05:54:16;;;;;;;4.13;1.40;;;;;;;8.26;90.60;95275.09;5032369;28;20044;-77
2021/05/16 05:56:42;;;;;;;5.97;1.50;;;;;;;8.34;90.14;95269.00;5039029;28;20029;-78
2021/05/16 05:59:09;;;;;;;3.73;1.10;;;;;;;8.37;90.00;95271.28;5047953;28;20636;-76
2021/05/16 06:01:34;;;;;;;3.63;1.23;;;;;;;8.38;89.87;95265.91;5040690;28;20621;-77
2021/05/16 06:04:00;;;;;;;5.07;1.50;;;;;;;8.22;89.81;95273.81;5044379;28;20049;-77
2021/05/16 06:06:26;;;;;;;5.30;1.20;;;;;;;8.45;89.51;95273.91;5054178;28;20029;-77
2021/05/16 06:08:51;;;;;;;3.43;1.33;;;;;;;8.51;89.61;95268.00;5040912;28;20427;-75
2021/05/16 06:11:18;;;;;;;4.23;2.03;;;;;;;8.56;89.91;95267.50;5057416;28;20029;-76
2021/05/16 06:13:44;;;;;;;4.57;1.60;;;;;;;8.64;89.90;95268.25;5057076;28;20114;-77
2021/05/16 06:16:10;;;;;;;4.00;1.20;;;;;;;8.57;88.66;95266.50;5057928;28;20325;-77
2021/05/16 06:18:36;;;;;;;3.80;1.30;;;;;;;8.74;87.68;95271.50;5058037;28;20039;-76
2021/05/16 06:21:03;;;;;;;4.90;1.57;;;;;;;8.98;88.25;95261.84;5058060;28;20059;-77
2021/05/16 06:23:35;;;;;;;5.77;1.17;;;;;;;9.48;86.24;95268.41;5050580;28;20029;-77
2021/05/16 06:26:01;;;;;;;2.43;1.17;;;;;;;9.43;85.92;95265.50;5038006;28;20036;-76
2021/05/16 06:28:26;;;;;;;4.60;1.03;;;;;;;9.51;85.63;95262.81;5055073;28;20033;-78
2021/05/16 06:30:52;;;;;;;4.07;1.13;;;;;;;9.50;85.42;95276.94;5057590;28;20043;-78
2021/05/16 06:33:19;;;;;;;3.73;1.10;;;;;;;9.44;85.03;95269.75;5058152;28;20056;-78
2021/05/16 06:35:46;;;;;;;5.47;0.90;;;;;;;9.67;83.87;95273.19;5079806;28;20498;-78
2021/05/16 06:38:11;;;;;;;4.20;1.10;;;;;;;10.08;82.16;95272.78;5073392;28;20032;-77
2021/05/16 06:40:37;;;;;;;3.70;1.00;;;;;;;9.74;82.57;95278.53;5075028;28;20330;-77
2021/05/16 06:43:05;;;;;;;3.33;1.00;;;;;;;9.71;83.48;95275.44;5095498;28;20055;-77
2021/05/16 06:45:31;;;;;;;3.87;1.53;;;;;;;9.79;82.85;95275.38;5074916;28;20028;-77
2021/05/16 06:47:57;;;;;;;6.50;1.10;;;;;;;9.65;82.79;95277.78;5072093;28;20024;-77
2021/05/16 06:50:22;;;;;;;3.33;1.10;;;;;;;9.77;83.00;95283.44;5070854;28;20178;-78
2021/05/16 06:52:48;;;;;;;2.30;0.97;;;;;;;9.81;83.66;95286.53;5069146;28;20025;-78
2021/05/16 06:55:14;;;;;;;4.73;1.00;;;;;;;9.68;83.89;95282.69;5074362;28;20028;-77
2021/05/16 06:57:42;;;;;;;4.30;1.00;;;;;;;9.61;85.27;95288.81;5073004;28;20036;-78
2021/05/16 07:00:09;;;;;;;4.13;1.50;;;;;;;9.46;85.26;95296.66;5062457;28;20034;-78
2021/05/16 07:02:34;;;;;;;4.80;1.17;;;;;;;9.64;87.12;95293.72;5067996;28;20024;-78
2021/05/16 07:05:00;;;;;;;5.70;1.37;;;;;;;9.49;85.28;95288.44;5065457;28;20175;-78
2021/05/16 07:07:26;;;;;;;6.90;2.03;;;;;;;9.51;86.66;95293.50;5065885;28;20036;-78
2021/05/16 07:09:51;;;;;;;3.43;1.87;;;;;;;9.58;86.14;95279.47;5069535;28;20036;-78
2021/05/16 07:12:17;;;;;;;6.60;2.50;;;;;;;9.68;85.57;95297.63;5066416;28;20488;-78
2021/05/16 07:14:43;;;;;;;6.37;3.10;;;;;;;9.85;85.57;95288.59;5066778;28;20120;-78
2021/05/16 07:17:09;;;;;;;4.03;1.67;;;;;;;10.04;85.18;95287.28;5054223;28;20020;-76
2021/05/16 07:19:34;;;;;;;7.83;2.30;;;;;;;10.36;84.69;95272.19;5052615;28;20059;-75
2021/05/16 07:22:00;;;;;;;2.00;0.90;;;;;;;10.77;81.80;95269.13;5065234;28;20514;-74
2021/05/16 07:24:26;;;;;;;3.47;1.00;;;;;;;10.87;81.97;95267.00;5067187;28;20446;-76
2021/05/16 07:26:51;;;;;;;1.20;0.40;;;;;;;11.78;77.98;95262.03;5057938;28;20016;-76
2021/05/16 07:29:17;;;;;;;1.77;0.60;;;;;;;12.34;75.47;95266.50;5061103;28;20130;-76
2021/05/16 07:31:43;;;;;;;3.13;0.90;;;;;;;12.64;73.76;95267.06;5054802;28;20021;-77
2021/05/16 07:34:09;;;;;;;2.50;0.60;;;;;;;11.98;73.32;95267.50;5068930;28;20021;-76
2021/05/16 07:36:34;;;;;;;2.10;0.67;;;;;;;12.12;76.41;95263.13;5056378;28;20070;-77
2021/05/16 07:39:00;;;;;;;3.23;0.53;;;;;;;12.21;75.97;95267.25;5084086;28;20032;-77
2021/05/16 07:41:26;;;;;;;3.77;0.90;;;;;;;12.23;74.55;95281.03;5062982;28;20032;-77
2021/05/16 07:43:52;;;;;;;3.30;0.67;;;;;;;11.78;74.29;95272.56;5060881;28;20116;-80
2021/05/16 07:46:18;;;;;;;1.50;0.83;;;;;;;12.15;76.11;95274.09;5067638;28;20065;-77
2021/05/16 07:48:43;;;;;;;3.23;0.70;;;;;;;12.29;74.25;95280.25;5070964;28;20090;-77
2021/05/16 07:51:09;;;;;;;2.93;0.60;;;;;;;11.91;72.05;95267.44;5062120;28;20374;-77
2021/05/16 07:53:35;;;;;;;3.77;0.87;;;;;;;12.32;71.58;95258.78;5070388;28;20040;-77
2021/05/16 07:56:03;;;;;;;2.30;0.50;;;;;;;13.76;67.08;95250.75;5071918;28;20062;-77
2021/05/16 07:58:29;;;;;;;4.07;1.17;;;;;;;14.55;65.26;95247.22;5073105;28;20097;-78
2021/05/16 08:00:55;;;;;;;4.23;0.73;;;;;;;14.09;67.14;95255.22;5066337;28;20504;-77
2021/05/16 08:03:21;;;;;;;3.83;1.03;;;;;;;13.59;66.05;95260.09;5059331;28;20032;-77
2021/05/16 08:05:47;;;;;;;5.90;1.73;;;;;;;14.49;64.54;95244.56;5059307;28;20459;-77
2021/05/16 08:08:13;;;;;;;5.70;1.63;;;;;;;15.87;60.10;95242.25;5062939;28;20037;-77
2021/05/16 08:10:39;;;;;;;4.97;1.00;;;;;;;15.37;59.54;95238.72;5063395;28;20021;-77
2021/05/16 08:13:04;;;;;;;2.57;0.80;;;;;;;15.53;59.03;95235.56;5065597;28;20045;-77
2021/05/16 08:15:33;;;;;;;2.83;0.60;;;;;;;15.64;58.10;95226.91;5065335;28;20032;-77
2021/05/16 08:17:59;;;;;;;2.57;0.60;;;;;;;16.32;57.40;95233.28;5062931;28;20032;-77
2021/05/16 08:20:25;;;;;;;7.50;1.63;;;;;;;16.42;55.81;95220.31;5065997;28;20024;-77
2021/05/16 08:22:50;;;;;;;4.07;1.77;;;;;;;17.19;52.39;95218.81;5065178;28;20028;-78
2021/05/16 08:25:16;;;;;;;3.33;0.80;;;;;;;16.56;54.95;95224.44;5073110;28;20123;-77
2021/05/16 08:27:43;;;;;;;2.70;0.77;;;;;;;15.67;56.49;95231.00;5069656;28;20021;-77
2021/05/16 08:30:09;;;;;;;7.27;2.63;;;;;;;16.33;55.13;95230.44;5062461;28;20389;-77
2021/05/16 08:32:35;;;;;;;12.33;6.77;;;;;;;16.36;55.94;95234.47;5057088;28;20610;-77
2021/05/16 08:35:01;;;;;;;9.30;5.63;;;;;;;16.13;55.07;95229.78;5065841;28;20071;-77
2021/05/16 08:37:27;;;;;;;3.35;1.17;;;;;;;17.09;52.64;95223.84;5057360;28;20033;-77
2021/05/16 08:39:53;;;;;;;7.40;2.20;;;;;;;15.96;54.89;95229.53;5055377;28;20020;-78
2021/05/16 08:42:19;;;;;;;2.08;1.00;;;;;;;15.52;55.48;95226.78;5057251;28;20033;-77
2021/05/16 08:44:45;;;;;;;2.28;0.85;;;;;;;15.32;54.34;95223.44;5064902;28;20021;-76
2021/05/16 08:47:14;;;;;;;2.40;0.70;;;;;;;16.42;52.11;95226.44;5067659;28;20117;-77
2021/05/16 08:49:40;;;;;;;3.38;1.08;;;;;;;16.29;51.75;95220.47;5066000;28;20025;-77
2021/05/16 08:52:05;;;;;;;3.13;1.38;;;;;;;16.75;50.24;95220.00;5066846;28;20552;-77
2021/05/16 08:54:31;;;;;;;4.45;2.05;;;;;;;17.44;49.32;95212.56;5066862;28;20021;-78
2021/05/16 08:56:57;;;;;;;2.78;0.93;;;;;;;17.46;48.77;95213.13;5065586;28;20579;-77
2021/05/16 08:59:24;;;;;;;2.97;0.82;;;;;;;17.53;48.38;95218.34;5064612;28;20016;-78
2021/05/16 09:01:52;;;;;;;3.92;0.95;;;;;;;17.17;50.76;95220.91;5065402;28;20383;-77
2021/05/16 09:04:37;;;;;;;1.77;0.70;;;;;;;17.80;49.58;95208.13;5062197;28;20016;-78
2021/05/16 09:07:04;;;;;;;7.53;0.88;;;;;;;16.88;50.01;95211.88;5043152;28;20500;-79
2021/05/16 09:09:39;;;;;;;3.92;1.00;;;;;;;17.97;46.63;95218.91;5070066;28;20056;-77
2021/05/16 09:12:08;;;;;;;4.90;0.95;;;;;;;18.28;47.68;95223.91;5059847;28;20035;-77
2021/05/16 09:14:57;;;;;;;5.95;0.90;;;;;;;17.39;46.10;95223.03;5068221;28;20024;-79
2021/05/16 09:17:32;;;;;;;4.55;0.90;;;;;;;17.41;48.39;95218.31;5050417;28;20446;-77
2021/05/16 09:20:05;;;;;;;4.10;0.70;;;;;;;17.22;49.26;95222.88;5059506;28;20127;-77
2021/05/16 09:22:40;;;;;;;4.32;1.20;;;;;;;17.06;46.61;95221.63;5063672;28;20063;-77
2021/05/16 09:25:14;;;;;;;5.20;0.82;;;;;;;16.90;46.68;95222.25;5065929;28;20025;-76
2021/05/16 09:27:43;;;;;;;6.97;1.08;;;;;;;16.53;52.26;95248.78;5054633;28;20025;-76
2021/05/16 09:30:27;;;;;;;4.00;1.05;;;;;;;14.53;62.21;95261.69;5064579;28;20029;-79
2021/05/16 09:32:54;;;;;;;4.28;1.15;;;;;;;13.85;64.64;95259.31;5051327;28;20029;-76
2021/05/16 09:35:34;;;;;;;3.13;0.70;;;;;;;13.43;67.85;95266.56;5055573;28;20020;-77
2021/05/16 09:38:11;;;;;;;3.47;0.77;;;;;;;13.42;65.89;95271.03;5056243;28;20086;-76
2021/05/16 09:40:46;;;;;;;13.30;8.13;;;;;;;13.73;63.17;95263.56;5055863;28;20082;-78
2021/05/16 09:43:16;;;;;;;6.40;1.20;;;;;;;15.50;59.27;95243.94;5070225;28;20035;-78
2021/05/16 09:45:56;;;;;;;1.83;0.60;;;;;;;16.02;53.00;95232.13;5061222;28;20056;-77
2021/05/16 09:48:36;;;;;;;5.10;1.90;;;;;;;17.10;51.08;95235.28;5064908;28;20037;-78
2021/05/16 09:51:18;;;;;;;5.53;1.90;;;;;;;17.42;48.99;95234.03;5067739;28;20032;-77
2021/05/16 09:53:49;;;;;;;5.68;2.50;;;;;;;17.63;46.49;95223.91;5062616;28;20093;-77
2021/05/16 09:56:25;;;;;;;4.72;1.25;;;;;;;17.59;45.38;95215.59;5066504;28;20119;-78
2021/05/16 09:58:53;;;;;;;2.50;0.73;;;;;;;18.66;44.29;95217.25;5065031;28;20039;-78
2021/05/16 10:01:21;;;;;;;3.58;0.75;;;;;;;18.45;44.42;95218.69;5071249;28;20032;-79
2021/05/16 10:03:48;;;;;;;3.53;0.70;;;;;;;18.60;44.54;95212.88;5066932;28;20297;-79
2021/05/16 10:06:14;;;;;;;4.03;0.68;;;;;;;18.37;44.89;95216.34;5087093;28;20111;-79
2021/05/16 10:08:42;;;;;;;2.28;0.88;;;;;;;18.59;45.54;95208.59;5072535;28;20054;-79
2021/05/16 10:11:07;;;;;;;4.93;1.70;;;;;;;19.17;44.46;95207.63;5068775;28;20020;-78
2021/05/16 10:13:45;;;;;;;4.97;0.85;;;;;;;18.94;43.77;95203.19;5069803;28;20044;-78
2021/05/16 10:16:14;;;;;;;3.88;1.13;;;;;;;18.54;43.86;95196.00;5070776;28;20064;-78
2021/05/16 10:18:41;;;;;;;5.00;1.30;;;;;;;19.26;44.56;95192.09;5067011;28;20052;-78
2021/05/16 10:21:07;;;;;;;2.67;0.90;;;;;;;19.48;43.06;95184.19;5064290;28;20039;-79
2021/05/16 10:23:38;;;;;;;3.35;0.95;;;;;;;19.58;42.62;95187.03;5066922;28;20069;-80
2021/05/16 10:26:23;;;;;;;6.88;1.70;;;;;;;19.71;42.41;95173.41;5069041;28;20035;-78
2021/05/16 10:29:05;;;;;;;2.63;0.93;;;;;;;19.36;43.97;95170.94;5060382;28;20077;-78
2021/05/16 10:31:48;;;;;;;10.05;5.38;;;;;;;17.11;49.69;95171.31;5084571;28;20570;-79
2021/05/16 10:34:39;;;;;;;5.13;1.08;;;;;;;16.69;53.71;95173.84;5063540;28;20190;-78
2021/05/16 10:37:06;;;;;;;3.50;1.50;;;;;;;16.83;51.81;95171.06;5064374;28;20041;-78
2021/05/16 10:39:38;;;;;;;3.15;1.05;;;;;;;17.74;49.36;95166.47;5061036;28;20024;-78
2021/05/16 10:42:19;;;;;;;3.15;0.88;;;;;;;18.68;49.80;95156.59;5086975;28;20052;-78
2021/05/16 10:45:16;;;;;;;3.22;0.80;;;;;;;18.86;48.38;95147.63;5077375;28;20020;-79
2021/05/16 10:47:42;;;;;;;3.10;0.90;;;;;;;19.46;45.04;95141.78;5039776;28;20077;-76
2021/05/16 10:50:11;;;;;;;2.60;0.77;;;;;;;19.69;44.41;95140.03;5056317;28;20478;-79
2021/05/16 10:52:37;;;;;;;6.07;1.10;;;;;;;19.34;43.86;95142.88;5069067;28;20028;-78
2021/05/16 10:55:07;;;;;;;4.38;0.85;;;;;;;19.45;45.56;95140.16;5064943;28;20056;-77
2021/05/16 10:57:38;;;;;;;5.55;1.23;;;;;;;16.98;49.42;95152.91;5064916;28;20751;-77
2021/05/16 11:00:27;;;;;;;3.80;1.27;;;;;;;16.72;52.63;95146.06;5062196;28;20032;-77
2021/05/16 11:03:06;;;;;;;4.57;1.00;;;;;;;16.55;52.76;95145.06;5072212;28;20036;-77
2021/05/16 11:05:51;;;;;;;5.10;1.08;;;;;;;17.10;50.87;95135.16;5086924;28;20052;-77
2021/05/16 11:08:17;;;;;;;4.07;0.75;;;;;;;17.38;49.66;95137.19;5070209;28;20037;-77
2021/05/16 11:10:44;;;;;;;2.22;0.70;;;;;;;17.62;47.23;95132.72;5071311;28;20027;-77
2021/05/16 11:13:17;;;;;;;3.03;0.70;;;;;;;17.81;45.15;95133.44;5064552;28;20040;-77
2021/05/16 11:15:51;;;;;;;4.72;1.20;;;;;;;18.68;43.92;95129.13;5072281;28;20029;-77
2021/05/16 11:18:19;;;;;;;3.08;1.10;;;;;;;19.37;42.01;95129.09;5070956;28;20504;-78
2021/05/16 11:20:56;;;;;;;7.90;1.65;;;;;;;19.13;41.94;95115.09;5072741;28;20111;-77
2021/05/16 11:23:22;;;;;;;6.78;1.05;;;;;;;19.27;42.02;95114.53;5075794;28;20025;-77
2021/05/16 11:26:06;;;;;;;5.30;0.82;;;;;;;19.92;40.89;95109.69;5071175;28;20031;-77
2021/05/16 11:28:34;;;;;;;5.20;0.85;;;;;;;19.40;38.52;95099.28;5072686;28;20032;-77
2021/05/16 11:31:06;;;;;;;7.47;1.70;;;;;;;19.60;39.64;95104.94;5073045;28;20052;-78
2021/05/16 11:33:34;;;;;;;2.90;1.05;;;;;;;20.17;38.44;95101.25;5046657;28;20044;-77
2021/05/16 11:36:11;;;;;;;4.55;1.58;;;;;;;20.85;36.74;95089.25;5073906;28;20028;-78
2021/05/16 11:38:42;;;;;;;4.70;1.17;;;;;;;21.50;36.64;95090.16;5059200;28;20035;-78
2021/05/16 11:41:22;;;;;;;2.85;1.05;;;;;;;20.79;36.35;95079.59;5085771;28;20043;-78
2021/05/16 11:43:48;;;;;;;3.60;1.00;;;;;;;20.74;38.75;95063.47;5072580;28;20036;-77